sensor_id;sensor_type;location;lat;lon;timestamp;temperature;humidity
41630;DHT22;27322;49.488;8.480;2022-12-29T00:01:55;10.80;99.90
41630;DHT22;27322;49.488;8.480;2022-12-29T00:04:21;10.80;99.90
41630;DHT22;27322;49.488;8.480;2022-12-29T00:06:47;10.80;99.90
41630;DHT22;27322;49.488;8.480;2022-12-29T00:09:15;10.90;99.90
41630;DHT22;27322;49.488;8.480;2022-12-29T00:11:41;10.90;99.90
41630;DHT22;27322;49.488;8.480;2022-12-29T00:14:08;10.90;99.90
41630;DHT22;27322;49.488;8.480;2022-12-29T00:16:52;11.00;99.90
41630;DHT22;27322;49.488;8.480;2022-12-29T00:19:18;11.10;99.90
41630;DHT22;27322;49.488;8.480;2022-12-29T00:22:02;11.10;99.90
41630;DHT22;27322;49.488;8.480;2022-12-29T00:24:47;11.20;99.90
41630;DHT22;27322;49.488;8.480;2022-12-29T00:27:31;11.20;99.90
41630;DHT22;27322;49.488;8.480;2022-12-29T00:30:18;11.30;99.90
41630;DHT22;27322;49.488;8.480;2022-12-29T00:33:10;11.20;99.90
41630;DHT22;27322;49.488;8.480;2022-12-29T00:35:58;11.30;99.90
41630;DHT22;27322;49.488;8.480;2022-12-29T00:38:24;11.30;99.90
41630;DHT22;27322;49.488;8.480;2022-12-29T00:41:08;11.30;99.90
41630;DHT22;27322;49.488;8.480;2022-12-29T00:43:52;11.30;99.90
41630;DHT22;27322;49.488;8.480;2022-12-29T00:46:30;11.30;99.90
41630;DHT22;27322;49.488;8.480;2022-12-29T00:48:56;11.40;99.90
41630;DHT22;27322;49.488;8.480;2022-12-29T00:51:40;11.40;99.90
41630;DHT22;27322;49.488;8.480;2022-12-29T00:54:06;11.40;99.90
41630;DHT22;27322;49.488;8.480;2022-12-29T00:56:32;11.50;99.90
41630;DHT22;27322;49.488;8.480;2022-12-29T00:59:05;11.50;99.90
41630;DHT22;27322;49.488;8.480;2022-12-29T01:01:32;11.40;99.90
41630;DHT22;27322;49.488;8.480;2022-12-29T01:03:58;11.50;99.90
41630;DHT22;27322;49.488;8.480;2022-12-29T01:06:24;11.50;99.90
41630;DHT22;27322;49.488;8.480;2022-12-29T01:08:51;11.40;99.90
41630;DHT22;27322;49.488;8.480;2022-12-29T01:11:37;11.50;99.90
41630;DHT22;27322;49.488;8.480;2022-12-29T01:14:03;11.50;99.90
41630;DHT22;27322;49.488;8.480;2022-12-29T01:16:29;11.40;99.90
41630;DHT22;27322;49.488;8.480;2022-12-29T01:18:54;11.50;99.90
41630;DHT22;27322;49.488;8.480;2022-12-29T01:21:20;11.40;99.90
41630;DHT22;27322;49.488;8.480;2022-12-29T01:23:46;11.50;99.90
41630;DHT22;27322;49.488;8.480;2022-12-29T01:26:13;11.50;99.90
41630;DHT22;27322;49.488;8.480;2022-12-29T01:28:39;11.50;99.90
41630;DHT22;27322;49.488;8.480;2022-12-29T01:31:09;11.50;99.90
41630;DHT22;27322;49.488;8.480;2022-12-29T01:33:35;11.60;99.90
41630;DHT22;27322;49.488;8.480;2022-12-29T01:36:06;11.60;99.90
41630;DHT22;27322;49.488;8.480;2022-12-29T01:38:33;11.60;99.90
41630;DHT22;27322;49.488;8.480;2022-12-29T01:40:59;11.70;99.90
41630;DHT22;27322;49.488;8.480;2022-12-29T01:43:53;11.60;99.90
41630;DHT22;27322;49.488;8.480;2022-12-29T01:46:31;11.70;99.90
41630;DHT22;27322;49.488;8.480;2022-12-29T01:51:46;11.70;99.90
41630;DHT22;27322;49.488;8.480;2022-12-29T01:54:19;11.70;99.90
41630;DHT22;27322;49.488;8.480;2022-12-29T01:56:47;11.70;99.90
41630;DHT22;27322;49.488;8.480;2022-12-29T01:59:16;11.70;99.90
41630;DHT22;27322;49.488;8.480;2022-12-29T02:01:43;11.70;99.90
41630;DHT22;27322;49.488;8.480;2022-12-29T02:04:10;11.80;99.90
41630;DHT22;27322;49.488;8.480;2022-12-29T02:06:42;11.80;99.90
41630;DHT22;27322;49.488;8.480;2022-12-29T02:09:10;11.80;99.90
41630;DHT22;27322;49.488;8.480;2022-12-29T02:11:36;11.80;99.90
41630;DHT22;27322;49.488;8.480;2022-12-29T02:14:09;11.70;99.90
41630;DHT22;27322;49.488;8.480;2022-12-29T02:27:29;11.80;99.90
41630;DHT22;27322;49.488;8.480;2022-12-29T02:33:17;11.80;99.90
41630;DHT22;27322;49.488;8.480;2022-12-29T02:36:19;11.80;99.90
41630;DHT22;27322;49.488;8.480;2022-12-29T02:42:02;11.80;99.90
41630;DHT22;27322;49.488;8.480;2022-12-29T02:44:55;11.80;99.90
41630;DHT22;27322;49.488;8.480;2022-12-29T02:50:02;11.80;99.90
41630;DHT22;27322;49.488;8.480;2022-12-29T02:52:39;11.80;99.90
41630;DHT22;27322;49.488;8.480;2022-12-29T02:55:11;11.80;99.90
41630;DHT22;27322;49.488;8.480;2022-12-29T02:57:37;11.80;99.90
41630;DHT22;27322;49.488;8.480;2022-12-29T03:15:46;11.80;99.90
41630;DHT22;27322;49.488;8.480;2022-12-29T03:18:37;11.80;99.90
41630;DHT22;27322;49.488;8.480;2022-12-29T03:23:39;11.80;99.90
41630;DHT22;27322;49.488;8.480;2022-12-29T03:26:08;11.80;99.90
41630;DHT22;27322;49.488;8.480;2022-12-29T03:28:46;11.80;99.90
41630;DHT22;27322;49.488;8.480;2022-12-29T03:31:13;11.80;99.90
41630;DHT22;27322;49.488;8.480;2022-12-29T03:33:41;11.80;99.90
41630;DHT22;27322;49.488;8.480;2022-12-29T03:36:12;11.80;99.90
41630;DHT22;27322;49.488;8.480;2022-12-29T03:38:43;11.80;99.90
41630;DHT22;27322;49.488;8.480;2022-12-29T03:41:17;11.80;99.90
41630;DHT22;27322;49.488;8.480;2022-12-29T03:43:43;11.80;99.90
41630;DHT22;27322;49.488;8.480;2022-12-29T03:46:09;11.80;99.90
41630;DHT22;27322;49.488;8.480;2022-12-29T03:48:34;11.80;99.90
41630;DHT22;27322;49.488;8.480;2022-12-29T03:51:00;11.80;99.90
41630;DHT22;27322;49.488;8.480;2022-12-29T03:53:25;11.80;99.90
41630;DHT22;27322;49.488;8.480;2022-12-29T03:55:51;11.80;99.90
41630;DHT22;27322;49.488;8.480;2022-12-29T03:58:17;11.80;99.90
41630;DHT22;27322;49.488;8.480;2022-12-29T04:00:42;11.80;99.90
41630;DHT22;27322;49.488;8.480;2022-12-29T04:03:08;11.80;99.90
41630;DHT22;27322;49.488;8.480;2022-12-29T04:05:33;11.70;99.90
41630;DHT22;27322;49.488;8.480;2022-12-29T04:07:59;11.80;99.90
41630;DHT22;27322;49.488;8.480;2022-12-29T04:10:25;11.80;99.90
41630;DHT22;27322;49.488;8.480;2022-12-29T04:12:50;11.80;99.90
41630;DHT22;27322;49.488;8.480;2022-12-29T04:15:16;11.80;99.90
41630;DHT22;27322;49.488;8.480;2022-12-29T04:17:42;11.80;99.90
41630;DHT22;27322;49.488;8.480;2022-12-29T04:20:08;11.80;99.90
41630;DHT22;27322;49.488;8.480;2022-12-29T04:23:02;11.80;99.90
41630;DHT22;27322;49.488;8.480;2022-12-29T04:25:28;11.80;99.90
41630;DHT22;27322;49.488;8.480;2022-12-29T04:27:55;11.80;99.90
41630;DHT22;27322;49.488;8.480;2022-12-29T04:30:20;11.80;99.90
41630;DHT22;27322;49.488;8.480;2022-12-29T04:32:46;11.80;99.90
41630;DHT22;27322;49.488;8.480;2022-12-29T04:35:11;11.80;99.90
41630;DHT22;27322;49.488;8.480;2022-12-29T04:37:37;11.80;99.90
41630;DHT22;27322;49.488;8.480;2022-12-29T04:40:03;11.80;99.90
41630;DHT22;27322;49.488;8.480;2022-12-29T04:42:28;11.80;99.90
41630;DHT22;27322;49.488;8.480;2022-12-29T04:44:54;11.80;99.90
41630;DHT22;27322;49.488;8.480;2022-12-29T04:47:19;11.80;99.90
41630;DHT22;27322;49.488;8.480;2022-12-29T04:49:45;11.80;99.90
41630;DHT22;27322;49.488;8.480;2022-12-29T04:52:11;11.80;99.90
41630;DHT22;27322;49.488;8.480;2022-12-29T04:54:36;11.80;99.90
41630;DHT22;27322;49.488;8.480;2022-12-29T04:57:02;11.80;99.90
41630;DHT22;27322;49.488;8.480;2022-12-29T04:59:27;11.80;99.90
41630;DHT22;27322;49.488;8.480;2022-12-29T05:01:53;11.80;99.90
41630;DHT22;27322;49.488;8.480;2022-12-29T05:04:19;11.80;99.90
41630;DHT22;27322;49.488;8.480;2022-12-29T05:06:44;11.80;99.90
41630;DHT22;27322;49.488;8.480;2022-12-29T05:09:10;11.80;99.90
41630;DHT22;27322;49.488;8.480;2022-12-29T05:11:35;11.80;99.90
41630;DHT22;27322;49.488;8.480;2022-12-29T05:14:01;11.80;99.90
41630;DHT22;27322;49.488;8.480;2022-12-29T05:16:26;11.80;99.90
41630;DHT22;27322;49.488;8.480;2022-12-29T05:18:52;11.80;99.90
41630;DHT22;27322;49.488;8.480;2022-12-29T05:21:17;11.80;99.90
41630;DHT22;27322;49.488;8.480;2022-12-29T05:23:43;11.80;99.90
41630;DHT22;27322;49.488;8.480;2022-12-29T05:26:09;11.80;99.90
41630;DHT22;27322;49.488;8.480;2022-12-29T05:28:34;11.80;99.90
41630;DHT22;27322;49.488;8.480;2022-12-29T05:31:00;11.70;99.90
41630;DHT22;27322;49.488;8.480;2022-12-29T05:33:25;11.70;99.90
41630;DHT22;27322;49.488;8.480;2022-12-29T05:35:51;11.80;99.90
41630;DHT22;27322;49.488;8.480;2022-12-29T05:38:16;11.70;99.90
41630;DHT22;27322;49.488;8.480;2022-12-29T05:40:43;11.80;99.90
41630;DHT22;27322;49.488;8.480;2022-12-29T05:43:08;11.80;99.90
41630;DHT22;27322;49.488;8.480;2022-12-29T05:45:35;11.80;99.90
41630;DHT22;27322;49.488;8.480;2022-12-29T05:48:01;11.70;99.90
41630;DHT22;27322;49.488;8.480;2022-12-29T05:50:27;11.70;99.90
41630;DHT22;27322;49.488;8.480;2022-12-29T05:52:52;11.70;99.90
41630;DHT22;27322;49.488;8.480;2022-12-29T05:55:18;11.70;99.90
41630;DHT22;27322;49.488;8.480;2022-12-29T05:57:43;11.70;99.90
41630;DHT22;27322;49.488;8.480;2022-12-29T06:00:10;11.70;99.90
41630;DHT22;27322;49.488;8.480;2022-12-29T06:02:35;11.70;99.90
41630;DHT22;27322;49.488;8.480;2022-12-29T06:05:01;11.70;99.90
41630;DHT22;27322;49.488;8.480;2022-12-29T06:07:27;11.70;99.90
41630;DHT22;27322;49.488;8.480;2022-12-29T06:09:52;11.70;99.90
41630;DHT22;27322;49.488;8.480;2022-12-29T06:12:18;11.70;99.90
41630;DHT22;27322;49.488;8.480;2022-12-29T06:14:43;11.70;99.90
41630;DHT22;27322;49.488;8.480;2022-12-29T06:17:09;11.70;99.90
41630;DHT22;27322;49.488;8.480;2022-12-29T06:19:35;11.70;99.90
41630;DHT22;27322;49.488;8.480;2022-12-29T06:22:00;11.70;99.90
41630;DHT22;27322;49.488;8.480;2022-12-29T06:24:26;11.80;99.90
41630;DHT22;27322;49.488;8.480;2022-12-29T06:26:51;11.70;99.90
41630;DHT22;27322;49.488;8.480;2022-12-29T06:29:17;11.80;99.90
41630;DHT22;27322;49.488;8.480;2022-12-29T06:31:44;11.80;99.90
41630;DHT22;27322;49.488;8.480;2022-12-29T06:34:14;11.80;99.90
41630;DHT22;27322;49.488;8.480;2022-12-29T06:36:39;11.80;99.90
41630;DHT22;27322;49.488;8.480;2022-12-29T06:39:05;11.80;99.90
41630;DHT22;27322;49.488;8.480;2022-12-29T06:41:31;11.80;99.90
41630;DHT22;27322;49.488;8.480;2022-12-29T06:43:57;11.80;99.90
41630;DHT22;27322;49.488;8.480;2022-12-29T06:46:22;11.80;99.90
41630;DHT22;27322;49.488;8.480;2022-12-29T06:48:48;11.80;99.90
41630;DHT22;27322;49.488;8.480;2022-12-29T06:51:13;11.80;99.90
41630;DHT22;27322;49.488;8.480;2022-12-29T06:53:39;11.80;99.90
41630;DHT22;27322;49.488;8.480;2022-12-29T06:56:05;11.80;99.90
41630;DHT22;27322;49.488;8.480;2022-12-29T06:58:31;11.80;99.90
41630;DHT22;27322;49.488;8.480;2022-12-29T07:00:56;11.80;99.90
41630;DHT22;27322;49.488;8.480;2022-12-29T07:03:22;11.80;99.90
41630;DHT22;27322;49.488;8.480;2022-12-29T07:05:47;11.80;99.90
41630;DHT22;27322;49.488;8.480;2022-12-29T07:08:13;11.80;99.90
41630;DHT22;27322;49.488;8.480;2022-12-29T07:10:39;11.80;99.90
41630;DHT22;27322;49.488;8.480;2022-12-29T07:13:05;11.80;99.90
41630;DHT22;27322;49.488;8.480;2022-12-29T07:15:33;11.80;99.90
41630;DHT22;27322;49.488;8.480;2022-12-29T07:17:58;11.90;99.90
41630;DHT22;27322;49.488;8.480;2022-12-29T07:20:24;11.90;99.90
41630;DHT22;27322;49.488;8.480;2022-12-29T07:22:50;11.90;99.90
41630;DHT22;27322;49.488;8.480;2022-12-29T07:25:15;12.00;99.90
41630;DHT22;27322;49.488;8.480;2022-12-29T07:27:41;11.90;99.90
41630;DHT22;27322;49.488;8.480;2022-12-29T07:30:07;12.00;99.90
41630;DHT22;27322;49.488;8.480;2022-12-29T07:32:33;12.00;99.90
41630;DHT22;27322;49.488;8.480;2022-12-29T07:34:59;12.00;99.90
41630;DHT22;27322;49.488;8.480;2022-12-29T07:37:25;12.00;99.90
41630;DHT22;27322;49.488;8.480;2022-12-29T07:39:50;12.00;99.90
41630;DHT22;27322;49.488;8.480;2022-12-29T07:42:16;12.00;99.90
41630;DHT22;27322;49.488;8.480;2022-12-29T07:44:42;12.00;99.90
41630;DHT22;27322;49.488;8.480;2022-12-29T07:47:07;12.10;99.90
41630;DHT22;27322;49.488;8.480;2022-12-29T07:49:33;12.10;99.90
41630;DHT22;27322;49.488;8.480;2022-12-29T07:51:58;12.10;99.90
41630;DHT22;27322;49.488;8.480;2022-12-29T07:54:24;12.10;99.90
41630;DHT22;27322;49.488;8.480;2022-12-29T07:56:50;12.10;99.90
41630;DHT22;27322;49.488;8.480;2022-12-29T07:59:15;12.00;99.90
41630;DHT22;27322;49.488;8.480;2022-12-29T08:01:41;12.10;99.90
41630;DHT22;27322;49.488;8.480;2022-12-29T08:04:06;12.10;99.90
41630;DHT22;27322;49.488;8.480;2022-12-29T08:06:32;12.10;99.90
41630;DHT22;27322;49.488;8.480;2022-12-29T08:08:58;12.10;99.90
41630;DHT22;27322;49.488;8.480;2022-12-29T08:11:24;12.10;99.90
41630;DHT22;27322;49.488;8.480;2022-12-29T08:13:49;12.10;99.90
41630;DHT22;27322;49.488;8.480;2022-12-29T08:16:15;12.10;99.90
41630;DHT22;27322;49.488;8.480;2022-12-29T08:18:40;12.10;99.90
41630;DHT22;27322;49.488;8.480;2022-12-29T08:21:06;12.10;99.90
41630;DHT22;27322;49.488;8.480;2022-12-29T08:23:32;12.10;99.90
41630;DHT22;27322;49.488;8.480;2022-12-29T08:26:06;12.10;99.90
41630;DHT22;27322;49.488;8.480;2022-12-29T08:28:32;12.10;99.90
41630;DHT22;27322;49.488;8.480;2022-12-29T08:30:59;12.20;99.90
41630;DHT22;27322;49.488;8.480;2022-12-29T08:33:27;12.10;99.90
41630;DHT22;27322;49.488;8.480;2022-12-29T08:35:58;12.10;99.90
41630;DHT22;27322;49.488;8.480;2022-12-29T08:38:23;12.10;99.90
41630;DHT22;27322;49.488;8.480;2022-12-29T08:40:51;12.10;99.90
41630;DHT22;27322;49.488;8.480;2022-12-29T08:43:16;12.10;99.90
41630;DHT22;27322;49.488;8.480;2022-12-29T08:45:42;12.10;99.90
41630;DHT22;27322;49.488;8.480;2022-12-29T08:48:07;12.10;99.90
41630;DHT22;27322;49.488;8.480;2022-12-29T08:50:33;12.10;99.90
41630;DHT22;27322;49.488;8.480;2022-12-29T08:52:59;12.10;99.90
41630;DHT22;27322;49.488;8.480;2022-12-29T08:55:24;12.10;99.90
41630;DHT22;27322;49.488;8.480;2022-12-29T08:57:50;12.10;99.90
41630;DHT22;27322;49.488;8.480;2022-12-29T09:00:16;12.20;99.90
41630;DHT22;27322;49.488;8.480;2022-12-29T09:02:41;12.20;99.90
41630;DHT22;27322;49.488;8.480;2022-12-29T09:05:07;12.20;99.90
41630;DHT22;27322;49.488;8.480;2022-12-29T09:07:33;12.20;99.90
41630;DHT22;27322;49.488;8.480;2022-12-29T09:09:58;12.20;99.90
41630;DHT22;27322;49.488;8.480;2022-12-29T09:12:24;12.20;99.90
41630;DHT22;27322;49.488;8.480;2022-12-29T09:14:50;12.20;99.90
41630;DHT22;27322;49.488;8.480;2022-12-29T09:17:15;12.20;99.90
41630;DHT22;27322;49.488;8.480;2022-12-29T09:19:59;12.20;99.90
41630;DHT22;27322;49.488;8.480;2022-12-29T09:22:25;12.20;99.90
41630;DHT22;27322;49.488;8.480;2022-12-29T09:24:50;12.30;99.90
41630;DHT22;27322;49.488;8.480;2022-12-29T09:27:16;12.30;99.90
41630;DHT22;27322;49.488;8.480;2022-12-29T09:29:41;12.20;99.90
41630;DHT22;27322;49.488;8.480;2022-12-29T09:32:07;12.30;99.90
41630;DHT22;27322;49.488;8.480;2022-12-29T09:34:32;12.30;99.90
41630;DHT22;27322;49.488;8.480;2022-12-29T09:36:58;12.40;99.90
41630;DHT22;27322;49.488;8.480;2022-12-29T09:39:24;12.40;99.90
41630;DHT22;27322;49.488;8.480;2022-12-29T09:45:23;12.60;99.90
41630;DHT22;27322;49.488;8.480;2022-12-29T09:47:53;12.60;99.90
41630;DHT22;27322;49.488;8.480;2022-12-29T09:50:39;12.60;99.90
41630;DHT22;27322;49.488;8.480;2022-12-29T09:53:10;12.60;99.90
41630;DHT22;27322;49.488;8.480;2022-12-29T09:55:42;12.70;99.90
41630;DHT22;27322;49.488;8.480;2022-12-29T10:00:59;12.70;99.90
41630;DHT22;27322;49.488;8.480;2022-12-29T10:03:45;12.70;99.90
41630;DHT22;27322;49.488;8.480;2022-12-29T10:14:12;12.70;99.90
41630;DHT22;27322;49.488;8.480;2022-12-29T10:23:02;12.70;99.90
41630;DHT22;27322;49.488;8.480;2022-12-29T10:25:34;12.70;99.90
41630;DHT22;27322;49.488;8.480;2022-12-29T10:28:03;12.70;99.90
41630;DHT22;27322;49.488;8.480;2022-12-29T10:30:29;12.70;99.90
41630;DHT22;27322;49.488;8.480;2022-12-29T10:32:59;12.70;99.90
41630;DHT22;27322;49.488;8.480;2022-12-29T10:35:32;12.70;99.90
41630;DHT22;27322;49.488;8.480;2022-12-29T10:43:56;12.70;99.90
41630;DHT22;27322;49.488;8.480;2022-12-29T10:46:24;12.70;99.90
41630;DHT22;27322;49.488;8.480;2022-12-29T10:48:50;12.70;99.90
41630;DHT22;27322;49.488;8.480;2022-12-29T10:51:37;12.70;99.90
41630;DHT22;27322;49.488;8.480;2022-12-29T10:56:44;12.70;99.90
41630;DHT22;27322;49.488;8.480;2022-12-29T10:59:24;12.70;99.90
41630;DHT22;27322;49.488;8.480;2022-12-29T11:07:21;12.70;99.90
41630;DHT22;27322;49.488;8.480;2022-12-29T11:09:47;12.70;99.90
41630;DHT22;27322;49.488;8.480;2022-12-29T11:12:25;12.70;99.90
41630;DHT22;27322;49.488;8.480;2022-12-29T11:20:39;12.80;99.90
41630;DHT22;27322;49.488;8.480;2022-12-29T11:23:22;12.80;99.90
41630;DHT22;27322;49.488;8.480;2022-12-29T11:28:39;12.90;99.90
41630;DHT22;27322;49.488;8.480;2022-12-29T11:31:06;12.90;99.90
41630;DHT22;27322;49.488;8.480;2022-12-29T11:33:35;12.90;99.90
41630;DHT22;27322;49.488;8.480;2022-12-29T11:36:21;12.90;99.90
41630;DHT22;27322;49.488;8.480;2022-12-29T11:38:53;12.90;99.90
41630;DHT22;27322;49.488;8.480;2022-12-29T11:41:25;13.00;99.90
41630;DHT22;27322;49.488;8.480;2022-12-29T11:43:52;13.00;99.90
41630;DHT22;27322;49.488;8.480;2022-12-29T11:46:39;13.00;99.90
41630;DHT22;27322;49.488;8.480;2022-12-29T11:49:04;13.00;99.90
41630;DHT22;27322;49.488;8.480;2022-12-29T11:51:53;13.00;99.90
41630;DHT22;27322;49.488;8.480;2022-12-29T11:54:32;13.00;99.90
41630;DHT22;27322;49.488;8.480;2022-12-29T11:57:12;13.00;99.90
41630;DHT22;27322;49.488;8.480;2022-12-29T11:59:42;12.90;99.90
41630;DHT22;27322;49.488;8.480;2022-12-29T12:04:41;13.00;99.90
41630;DHT22;27322;49.488;8.480;2022-12-29T12:09:36;13.00;99.90
41630;DHT22;27322;49.488;8.480;2022-12-29T12:12:03;13.00;99.90
41630;DHT22;27322;49.488;8.480;2022-12-29T12:14:43;13.00;99.90
41630;DHT22;27322;49.488;8.480;2022-12-29T12:20:03;13.00;99.90
41630;DHT22;27322;49.488;8.480;2022-12-29T12:22:37;13.10;99.90
41630;DHT22;27322;49.488;8.480;2022-12-29T12:25:27;13.00;99.90
41630;DHT22;27322;49.488;8.480;2022-12-29T12:28:01;13.00;99.90
41630;DHT22;27322;49.488;8.480;2022-12-29T12:30:36;13.00;99.90
41630;DHT22;27322;49.488;8.480;2022-12-29T12:41:29;12.80;99.90
41630;DHT22;27322;49.488;8.480;2022-12-29T12:56:09;12.70;99.90
41630;DHT22;27322;49.488;8.480;2022-12-29T12:58:59;12.70;99.90
41630;DHT22;27322;49.488;8.480;2022-12-29T13:04:37;12.70;99.90
41630;DHT22;27322;49.488;8.480;2022-12-29T13:12:36;12.70;99.90
41630;DHT22;27322;49.488;8.480;2022-12-29T13:18:16;12.70;99.90
41630;DHT22;27322;49.488;8.480;2022-12-29T13:26:05;12.70;99.90
41630;DHT22;27322;49.488;8.480;2022-12-29T13:34:41;12.70;99.90
41630;DHT22;27322;49.488;8.480;2022-12-29T13:37:16;12.70;99.90
41630;DHT22;27322;49.488;8.480;2022-12-29T13:39:51;12.60;99.90
41630;DHT22;27322;49.488;8.480;2022-12-29T13:42:18;12.60;99.90
41630;DHT22;27322;49.488;8.480;2022-12-29T13:44:49;12.60;99.90
41630;DHT22;27322;49.488;8.480;2022-12-29T13:47:42;12.60;99.90
41630;DHT22;27322;49.488;8.480;2022-12-29T13:50:21;12.60;99.90
41630;DHT22;27322;49.488;8.480;2022-12-29T14:00:54;12.50;99.90
41630;DHT22;27322;49.488;8.480;2022-12-29T14:03:58;12.50;99.90
41630;DHT22;27322;49.488;8.480;2022-12-29T14:06:26;12.50;99.90
41630;DHT22;27322;49.488;8.480;2022-12-29T14:09:55;12.40;99.90
41630;DHT22;27322;49.488;8.480;2022-12-29T14:11:48;12.40;99.90
41630;DHT22;27322;49.488;8.480;2022-12-29T14:14:23;12.30;99.90
41630;DHT22;27322;49.488;8.480;2022-12-29T14:16:50;12.30;99.90
41630;DHT22;27322;49.488;8.480;2022-12-29T14:19:18;12.20;99.90
41630;DHT22;27322;49.488;8.480;2022-12-29T14:21:56;12.20;99.90
41630;DHT22;27322;49.488;8.480;2022-12-29T14:34:50;12.00;99.90
41630;DHT22;27322;49.488;8.480;2022-12-29T14:37:29;12.00;99.90
41630;DHT22;27322;49.488;8.480;2022-12-29T14:40:19;11.90;99.90
41630;DHT22;27322;49.488;8.480;2022-12-29T14:42:50;11.90;99.90
41630;DHT22;27322;49.488;8.480;2022-12-29T14:47:43;11.90;99.90
41630;DHT22;27322;49.488;8.480;2022-12-29T14:55:41;11.80;99.90
41630;DHT22;27322;49.488;8.480;2022-12-29T14:58:17;11.80;99.90
41630;DHT22;27322;49.488;8.480;2022-12-29T15:00:44;11.80;99.90
41630;DHT22;27322;49.488;8.480;2022-12-29T15:06:11;11.80;99.90
41630;DHT22;27322;49.488;8.480;2022-12-29T15:08:54;11.80;99.90
41630;DHT22;27322;49.488;8.480;2022-12-29T15:11:21;11.80;99.90
41630;DHT22;27322;49.488;8.480;2022-12-29T15:13:48;11.80;99.90
41630;DHT22;27322;49.488;8.480;2022-12-29T15:18:48;11.80;99.90
41630;DHT22;27322;49.488;8.480;2022-12-29T15:21:15;11.80;99.90
41630;DHT22;27322;49.488;8.480;2022-12-29T15:23:43;11.80;99.90
41630;DHT22;27322;49.488;8.480;2022-12-29T15:26:10;11.80;99.90
41630;DHT22;27322;49.488;8.480;2022-12-29T15:28:39;11.80;99.90
41630;DHT22;27322;49.488;8.480;2022-12-29T15:31:10;11.80;99.90
41630;DHT22;27322;49.488;8.480;2022-12-29T15:33:40;11.70;99.90
41630;DHT22;27322;49.488;8.480;2022-12-29T15:36:11;11.70;99.90
41630;DHT22;27322;49.488;8.480;2022-12-29T15:38:38;11.70;99.90
41630;DHT22;27322;49.488;8.480;2022-12-29T15:46:31;11.60;99.90
41630;DHT22;27322;49.488;8.480;2022-12-29T15:48:57;11.60;99.90
41630;DHT22;27322;49.488;8.480;2022-12-29T15:51:28;11.60;99.90
41630;DHT22;27322;49.488;8.480;2022-12-29T15:53:54;11.50;99.90
41630;DHT22;27322;49.488;8.480;2022-12-29T15:56:20;11.50;99.90
41630;DHT22;27322;49.488;8.480;2022-12-29T15:58:51;11.50;99.90
41630;DHT22;27322;49.488;8.480;2022-12-29T16:01:33;11.50;99.90
41630;DHT22;27322;49.488;8.480;2022-12-29T16:04:09;11.50;99.90
41630;DHT22;27322;49.488;8.480;2022-12-29T16:09:43;11.40;99.90
41630;DHT22;27322;49.488;8.480;2022-12-29T16:12:35;11.40;99.90
41630;DHT22;27322;49.488;8.480;2022-12-29T16:15:02;11.40;99.90
41630;DHT22;27322;49.488;8.480;2022-12-29T16:17:30;11.40;99.90
41630;DHT22;27322;49.488;8.480;2022-12-29T16:20:00;11.40;99.90
41630;DHT22;27322;49.488;8.480;2022-12-29T16:22:30;11.40;99.90
41630;DHT22;27322;49.488;8.480;2022-12-29T16:25:15;11.40;99.90
41630;DHT22;27322;49.488;8.480;2022-12-29T16:27:43;11.40;99.90
41630;DHT22;27322;49.488;8.480;2022-12-29T16:30:23;11.40;99.90
41630;DHT22;27322;49.488;8.480;2022-12-29T16:32:55;11.40;99.90
41630;DHT22;27322;49.488;8.480;2022-12-29T16:37:48;11.40;99.90
41630;DHT22;27322;49.488;8.480;2022-12-29T16:40:28;11.40;99.90
41630;DHT22;27322;49.488;8.480;2022-12-29T16:43:03;11.40;99.90
41630;DHT22;27322;49.488;8.480;2022-12-29T16:50:37;11.50;99.90
41630;DHT22;27322;49.488;8.480;2022-12-29T16:53:04;11.50;99.90
41630;DHT22;27322;49.488;8.480;2022-12-29T16:55:30;11.50;99.90
41630;DHT22;27322;49.488;8.480;2022-12-29T16:57:56;11.50;99.90
41630;DHT22;27322;49.488;8.480;2022-12-29T17:00:29;11.50;99.90
41630;DHT22;27322;49.488;8.480;2022-12-29T17:02:58;11.50;99.90
41630;DHT22;27322;49.488;8.480;2022-12-29T17:05:25;11.50;99.90
41630;DHT22;27322;49.488;8.480;2022-12-29T17:07:51;11.50;99.90
41630;DHT22;27322;49.488;8.480;2022-12-29T17:10:18;11.50;99.90
41630;DHT22;27322;49.488;8.480;2022-12-29T17:12:46;11.50;99.90
41630;DHT22;27322;49.488;8.480;2022-12-29T17:15:23;11.50;99.90
41630;DHT22;27322;49.488;8.480;2022-12-29T17:17:52;11.50;99.90
41630;DHT22;27322;49.488;8.480;2022-12-29T17:20:25;11.50;99.90
41630;DHT22;27322;49.488;8.480;2022-12-29T17:22:52;11.50;99.90
41630;DHT22;27322;49.488;8.480;2022-12-29T17:25:27;11.50;99.90
41630;DHT22;27322;49.488;8.480;2022-12-29T17:27:59;11.50;99.90
41630;DHT22;27322;49.488;8.480;2022-12-29T17:30:27;11.50;99.90
41630;DHT22;27322;49.488;8.480;2022-12-29T17:33:02;11.50;99.90
41630;DHT22;27322;49.488;8.480;2022-12-29T17:35:28;11.60;99.90
41630;DHT22;27322;49.488;8.480;2022-12-29T17:37:54;11.50;99.90
41630;DHT22;27322;49.488;8.480;2022-12-29T17:40:22;11.50;99.90
41630;DHT22;27322;49.488;8.480;2022-12-29T17:42:52;11.50;99.90
41630;DHT22;27322;49.488;8.480;2022-12-29T17:45:38;11.50;99.90
41630;DHT22;27322;49.488;8.480;2022-12-29T17:48:11;11.50;99.90
41630;DHT22;27322;49.488;8.480;2022-12-29T17:50:37;11.50;99.90
41630;DHT22;27322;49.488;8.480;2022-12-29T17:53:05;11.50;99.90
41630;DHT22;27322;49.488;8.480;2022-12-29T17:55:31;11.50;99.90
41630;DHT22;27322;49.488;8.480;2022-12-29T17:57:57;11.50;99.90
41630;DHT22;27322;49.488;8.480;2022-12-29T18:00:28;11.50;99.90
41630;DHT22;27322;49.488;8.480;2022-12-29T18:02:56;11.50;99.90
41630;DHT22;27322;49.488;8.480;2022-12-29T18:05:27;11.50;99.90
41630;DHT22;27322;49.488;8.480;2022-12-29T18:07:55;11.50;99.90
41630;DHT22;27322;49.488;8.480;2022-12-29T18:10:22;11.50;99.90
41630;DHT22;27322;49.488;8.480;2022-12-29T18:12:50;11.50;99.90
41630;DHT22;27322;49.488;8.480;2022-12-29T18:15:31;11.40;99.90
41630;DHT22;27322;49.488;8.480;2022-12-29T18:18:10;11.50;99.90
41630;DHT22;27322;49.488;8.480;2022-12-29T18:20:36;11.40;99.90
41630;DHT22;27322;49.488;8.480;2022-12-29T18:23:02;11.40;99.90
41630;DHT22;27322;49.488;8.480;2022-12-29T18:25:56;11.40;99.90
41630;DHT22;27322;49.488;8.480;2022-12-29T18:28:23;11.40;99.90
41630;DHT22;27322;49.488;8.480;2022-12-29T18:30:50;11.40;99.90
41630;DHT22;27322;49.488;8.480;2022-12-29T18:33:17;11.40;99.90
41630;DHT22;27322;49.488;8.480;2022-12-29T18:36:01;11.40;99.90
41630;DHT22;27322;49.488;8.480;2022-12-29T18:38:27;11.40;99.90
41630;DHT22;27322;49.488;8.480;2022-12-29T18:40:54;11.40;99.90
41630;DHT22;27322;49.488;8.480;2022-12-29T18:43:20;11.40;99.90
41630;DHT22;27322;49.488;8.480;2022-12-29T18:45:46;11.30;99.90
41630;DHT22;27322;49.488;8.480;2022-12-29T18:48:13;11.30;99.90
41630;DHT22;27322;49.488;8.480;2022-12-29T18:50:38;11.30;99.90